createdAt,value
2018-03-28T02:35:33.986Z,97893.23
2018-03-28T02:38:04.255Z,97893.03
2018-03-28T02:40:34.220Z,97896.70
2018-03-28T02:43:04.233Z,97887.64
2018-03-28T02:45:34.341Z,97889.13
2018-03-28T02:48:04.510Z,97895.38
2018-03-28T02:50:34.801Z,97888.02
2018-03-28T02:53:04.802Z,97885.70
2018-03-28T02:55:34.776Z,97877.22
2018-03-28T02:58:04.870Z,97879.16
2018-03-28T03:00:34.816Z,97875.91
2018-03-28T03:03:04.781Z,97872.53
2018-03-28T03:05:34.777Z,97874.29
2018-03-28T03:08:04.841Z,97883.09
2018-03-28T03:10:34.832Z,97878.86
2018-03-28T03:13:04.922Z,97883.66
2018-03-28T03:15:34.940Z,97877.53
2018-03-28T03:18:05.332Z,97881.20
2018-03-28T03:20:35.308Z,97882.09
2018-03-28T03:23:05.309Z,97883.41
2018-03-28T03:25:35.610Z,97881.34
2018-03-28T03:28:05.625Z,97880.54
2018-03-28T03:30:35.760Z,97880.95
2018-03-28T03:33:05.759Z,97883.73
2018-03-28T03:35:36.251Z,97883.63
2018-03-28T03:38:06.270Z,97877.91
2018-03-28T03:40:36.373Z,97886.39
2018-03-28T03:43:06.711Z,97887.25
2018-03-28T03:45:36.814Z,97883.90
2018-03-28T03:50:40.807Z,97875.03
2018-03-28T03:53:10.931Z,97874.45
2018-03-28T03:55:41.043Z,97869.31
2018-03-28T03:58:11.122Z,97870.55
2018-03-28T04:00:41.310Z,97878.85
2018-03-28T04:03:15.049Z,97873.33
2018-03-28T04:05:46.696Z,97868.43
2018-03-28T04:08:17.997Z,97867.00
2018-03-28T04:10:48.442Z,97869.82
2018-03-28T04:13:18.423Z,97871.16
2018-03-28T04:15:48.501Z,97870.39
2018-03-28T04:18:18.542Z,97868.73
2018-03-28T04:20:48.685Z,97865.78
2018-03-28T04:23:18.790Z,97865.22
2018-03-28T04:25:48.975Z,97875.72
2018-03-28T04:28:19.028Z,97874.52
2018-03-28T04:30:49.156Z,97866.75
2018-03-28T04:33:20.498Z,97868.59
2018-03-28T04:35:50.661Z,97875.23
2018-03-28T04:38:20.660Z,97871.12
2018-03-28T04:40:50.665Z,97876.52
2018-03-28T04:43:23.577Z,97879.55
2018-03-28T04:45:56.906Z,97880.47
2018-03-28T04:48:30.340Z,97881.80
2018-03-28T04:51:00.429Z,97874.84
2018-03-28T04:53:30.343Z,97873.91
2018-03-28T04:56:01.018Z,97869.95
2018-03-28T04:58:31.163Z,97876.91
2018-03-28T05:01:01.952Z,97878.48
2018-03-28T05:03:32.025Z,97888.34
2018-03-28T05:06:06.570Z,97884.95
2018-03-28T11:52:23.657Z,97667.77
2018-03-28T11:58:56.009Z,97668.25
2018-03-28T12:01:33.778Z,97659.03
2018-03-28T12:04:04.006Z,97656.59
2018-03-28T12:06:34.850Z,97653.72
2018-03-28T12:09:04.737Z,97647.87
2018-03-28T12:26:26.172Z,97639.62
2018-03-28T12:40:36.371Z,97619.22
2018-03-28T12:43:33.787Z,97619.81
2018-03-28T12:56:07.095Z,97595.41
2018-03-28T13:19:49.458Z,97576.08
2018-03-28T13:22:27.080Z,97569.42
2018-03-28T13:27:38.150Z,97568.29
2018-03-28T13:30:08.813Z,97561.95
2018-03-28T13:35:48.910Z,97555.59
2018-03-28T13:38:18.821Z,97561.22
2018-03-28T13:40:48.475Z,97563.81
2018-03-28T13:43:25.769Z,97563.15
2018-03-28T13:46:10.301Z,97555.33
2018-03-28T13:54:11.195Z,97540.50
2018-03-28T13:56:41.800Z,97537.22
2018-03-28T14:01:50.231Z,97527.28
2018-03-28T14:10:45.713Z,97517.43
2018-03-28T14:13:18.188Z,97511.28
2018-03-28T14:18:40.890Z,97518.44
2018-03-28T14:28:13.335Z,97491.58
2018-03-28T14:31:34.451Z,97483.79
2018-03-28T14:45:16.740Z,97471.38
2018-03-28T14:47:48.676Z,97475.12
2018-03-28T14:50:22.701Z,97468.46
2018-03-28T14:53:04.711Z,97464.66
2018-03-28T14:55:48.927Z,97461.43
2018-03-28T15:04:06.645Z,97451.85
2018-03-28T15:10:12.834Z,97460.63
2018-03-28T15:15:20.475Z,97453.05
2018-03-28T15:27:36.443Z,97442.52
2018-03-28T15:35:40.633Z,97440.50
2018-03-28T15:38:18.216Z,97434.98
2018-03-28T15:40:52.904Z,97423.52
2018-03-28T15:46:19.163Z,97428.87
2018-03-28T15:53:59.414Z,97413.36
2018-03-28T15:59:43.213Z,97412.28
2018-03-28T16:05:18.500Z,97404.19
2018-03-28T16:07:49.707Z,97402.72
2018-03-28T16:10:19.704Z,97403.25
2018-03-28T16:12:54.468Z,97397.62
2018-03-28T16:15:32.326Z,97389.98
2018-03-28T16:18:02.771Z,97390.19
2018-03-28T16:20:33.302Z,97393.66
2018-03-28T16:31:51.086Z,97395.58
2018-03-28T16:34:20.954Z,97391.70
2018-03-28T16:36:51.024Z,97389.70
2018-03-28T16:39:23.084Z,97381.36
2018-03-28T16:41:57.082Z,97381.62
2018-03-28T16:44:26.994Z,97376.79
2018-03-28T16:49:32.634Z,97373.16
2018-03-28T16:52:02.682Z,97366.35
2018-03-28T16:54:34.345Z,97360.98
2018-03-28T16:57:04.466Z,97359.94
2018-03-28T16:59:34.110Z,97352.97
2018-03-28T17:02:04.019Z,97352.03
2018-03-28T17:04:34.209Z,97355.14
2018-03-28T17:07:05.626Z,97346.95
2018-03-28T17:09:35.601Z,97343.19
2018-03-28T17:12:09.080Z,97350.98
2018-03-28T17:14:40.487Z,97345.73
2018-03-28T17:17:10.605Z,97352.45
2018-03-28T17:19:40.598Z,97345.47
2018-03-28T17:22:10.827Z,97344.39
2018-03-28T17:24:41.178Z,97344.27
2018-03-28T17:27:11.869Z,97344.27
2018-03-28T17:29:41.852Z,97346.81
2018-03-28T17:32:14.074Z,97340.23
2018-03-28T17:34:44.199Z,97337.81
2018-03-28T17:37:14.124Z,97339.97
2018-03-28T17:39:43.822Z,97334.73
2018-03-28T17:42:13.956Z,97333.25
2018-03-28T17:44:43.958Z,97334.88
2018-03-28T17:47:14.200Z,97337.95
2018-03-28T17:49:44.267Z,97333.13
2018-03-28T17:52:14.234Z,97333.64
2018-03-28T17:57:18.241Z,97334.94
2018-03-28T17:59:52.025Z,97335.34
2018-03-28T18:02:22.149Z,97327.45
2018-03-28T18:04:52.068Z,97324.08
2018-03-28T18:07:22.180Z,97326.53
2018-03-28T18:09:52.461Z,97319.77
2018-03-28T18:12:22.436Z,97315.88
2018-03-28T18:14:52.554Z,97314.27
2018-03-28T18:17:23.061Z,97308.63
2018-03-28T18:19:53.816Z,97303.39
2018-03-28T18:22:23.661Z,97304.61
2018-03-28T18:24:53.540Z,97305.27
2018-03-28T18:27:23.370Z,97303.25
2018-03-28T18:29:54.093Z,97303.52
2018-03-28T18:32:24.736Z,97312.22
2018-03-28T18:34:54.593Z,97307.02
2018-03-28T18:37:24.659Z,97297.22
2018-03-28T18:40:07.107Z,97301.63
2018-03-28T18:42:39.006Z,97308.07
2018-03-28T18:45:09.004Z,97303.91
2018-03-28T18:47:39.238Z,97315.03
2018-03-28T18:50:09.235Z,97313.30
2018-03-28T18:52:39.291Z,97310.45
2018-03-28T18:55:09.522Z,97302.56
2018-03-28T18:57:39.691Z,97301.75
2018-03-28T19:00:09.624Z,97305.50
2018-03-28T19:02:39.654Z,97295.56
2018-03-28T19:05:09.527Z,97288.86
2018-03-28T19:07:39.423Z,97290.75
2018-03-28T19:10:09.275Z,97292.75
2018-03-28T19:12:39.112Z,97295.69
2018-03-28T19:15:08.980Z,97284.03
2018-03-28T19:17:38.833Z,97292.50
2018-03-28T19:20:08.684Z,97289.69
2018-03-28T19:22:38.557Z,97288.86
2018-03-28T19:25:08.400Z,97287.34
2018-03-28T19:27:38.271Z,97281.05
2018-03-28T19:30:08.240Z,97278.77
2018-03-28T19:32:38.085Z,97268.71
2018-03-28T19:35:08.023Z,97267.38
2018-03-28T19:37:37.896Z,97263.60
2018-03-28T19:40:07.740Z,97262.39
2018-03-28T19:42:37.704Z,97259.83
2018-03-28T19:45:07.606Z,97266.16
2018-03-28T19:47:37.468Z,97269.50
2018-03-28T19:50:07.381Z,97266.97
2018-03-28T19:52:37.242Z,97264.13
2018-03-28T19:55:06.612Z,97261.30
2018-03-28T19:57:36.458Z,97252.58
2018-03-28T20:00:06.426Z,97254.91
2018-03-28T20:02:36.272Z,97255.86
2018-03-28T20:05:06.941Z,97248.59
2018-03-28T20:07:36.812Z,97252.19
2018-03-28T20:10:06.649Z,97248.95
2018-03-28T20:12:36.766Z,97246.56
2018-03-28T20:15:06.865Z,97236.09
2018-03-28T20:17:36.757Z,97225.77
2018-03-28T20:20:06.658Z,97219.48
2018-03-28T20:22:36.571Z,97216.24
2018-03-28T20:25:06.630Z,97225.78
2018-03-28T20:27:36.485Z,97228.86
2018-03-28T20:30:06.439Z,97232.07
2018-03-28T20:32:36.375Z,97225.91
2018-03-28T20:35:06.285Z,97219.86
2018-03-28T20:37:36.480Z,97222.27
2018-03-28T20:40:06.586Z,97221.07
2018-03-28T20:42:36.477Z,97222.55
2018-03-28T20:45:06.322Z,97219.98
2018-03-28T20:47:36.176Z,97212.07
2018-03-28T20:50:05.893Z,97219.63
2018-03-28T20:52:35.794Z,97221.89
2018-03-28T20:55:05.854Z,97223.23
2018-03-28T20:57:35.386Z,97229.41
2018-03-28T21:00:04.872Z,97224.71
2018-03-28T21:02:35.228Z,97243.73
2018-03-28T21:05:04.967Z,97242.64
2018-03-28T21:07:51.353Z,97242.89
2018-03-28T21:10:27.628Z,97245.05
2018-03-28T21:12:57.910Z,97244.52
2018-03-28T21:15:27.803Z,97241.97
2018-03-28T21:17:57.985Z,97237.13
2018-03-28T21:20:28.076Z,97233.89
2018-03-28T21:22:58.592Z,97233.77
2018-03-28T21:25:28.761Z,97228.69
2018-03-28T21:27:58.816Z,97230.81
2018-03-28T21:30:28.381Z,97222.65
2018-03-28T21:32:58.410Z,97230.28
2018-03-28T21:35:28.440Z,97235.41
2018-03-28T21:37:58.328Z,97230.16
2018-03-28T21:40:36.505Z,97225.45
2018-03-28T21:43:08.705Z,97217.01
2018-03-28T21:45:38.788Z,97219.56
2018-03-28T21:48:08.604Z,97218.34
2018-03-28T21:50:38.716Z,97220.34
2018-03-28T21:53:08.682Z,97206.70
2018-03-28T21:55:38.651Z,97191.80
2018-03-28T21:58:09.077Z,97186.45
2018-03-28T22:00:39.041Z,97185.64
2018-03-28T22:03:08.913Z,97176.25
2018-03-28T22:05:38.964Z,97174.14
2018-03-28T22:08:08.841Z,97171.86
2018-03-28T22:10:38.612Z,97169.60
2018-03-28T22:13:08.551Z,97166.37
2018-03-28T22:15:38.494Z,97163.27
2018-03-28T22:18:08.493Z,97161.52
2018-03-28T22:20:38.371Z,97162.06
2018-03-28T22:23:08.311Z,97159.25
2018-03-28T22:25:38.194Z,97162.47
2018-03-28T22:28:08.264Z,97159.11
2018-03-28T22:30:38.158Z,97161.78
2018-03-28T22:33:08.077Z,97163.91
2018-03-28T22:35:38.183Z,97162.03
2018-03-28T22:38:08.268Z,97163.63
2018-03-28T22:40:38.174Z,97162.31
2018-03-28T22:43:08.169Z,97156.31
2018-03-28T22:45:38.192Z,97152.68
2018-03-28T22:48:08.353Z,97152.83
2018-03-28T22:50:38.293Z,97151.20
2018-03-28T22:53:08.229Z,97157.66
2018-03-28T22:55:38.306Z,97156.17
2018-03-28T22:58:09.228Z,97156.19
2018-03-28T23:00:39.161Z,97158.59
2018-03-28T23:03:09.081Z,97158.09
2018-03-28T23:05:38.996Z,97156.19
2018-03-28T23:08:08.976Z,97154.73
2018-03-28T23:10:44.503Z,97158.88
2018-03-28T23:13:19.975Z,97154.98
2018-03-28T23:15:49.880Z,97158.08
2018-03-28T23:18:19.840Z,97143.97
2018-03-28T23:20:49.800Z,97140.75
2018-03-28T23:23:19.709Z,97153.61
2018-03-28T23:25:49.644Z,97159.11
2018-03-28T23:28:19.610Z,97152.00
2018-03-28T23:30:49.622Z,97139.95
2018-03-28T23:33:19.548Z,97151.59
2018-03-28T23:35:49.436Z,97153.74
2018-03-28T23:38:19.327Z,97149.07
2018-03-28T23:40:49.243Z,97163.83
2018-03-28T23:43:20.046Z,97158.03
2018-03-28T23:45:49.991Z,97160.05
2018-03-28T23:48:19.971Z,97160.98
2018-03-28T23:50:50.201Z,97153.76
2018-03-28T23:53:20.197Z,97161.14
2018-03-28T23:55:50.218Z,97164.09
2018-03-28T23:58:20.149Z,97158.86
